createdAt,value
2023-05-05T00:01:50.288Z,101539.59
2023-05-05T00:06:53.398Z,101553.91
2023-05-05T00:11:56.281Z,101542.50
2023-05-05T00:16:58.986Z,101535.81
2023-05-05T00:22:01.858Z,101544.06
2023-05-05T00:27:05.096Z,101557.75
2023-05-05T00:32:08.222Z,101543.53
2023-05-05T00:37:11.625Z,101541.97
2023-05-05T00:42:14.382Z,101542.47
2023-05-05T00:47:17.660Z,101545.78
2023-05-05T00:52:20.533Z,101548.19
2023-05-05T00:57:24.935Z,101547.09
2023-05-05T01:02:28.207Z,101539.47
2023-05-05T01:07:38.081Z,101546.97
2023-05-05T01:12:58.808Z,101560.06
2023-05-05T01:18:42.808Z,101555.44
2023-05-05T01:24:03.600Z,101560.69
2023-05-05T01:29:46.390Z,101572.88
2023-05-05T01:34:58.901Z,101576.66
2023-05-05T01:40:06.792Z,101572.38
2023-05-05T01:45:12.099Z,101571.06
2023-05-05T01:50:15.524Z,101568.06
2023-05-05T01:55:20.117Z,101563.56
2023-05-05T02:00:25.544Z,101575.94
2023-05-05T02:05:30.213Z,101585.03
2023-05-05T02:10:33.573Z,101593.56
2023-05-05T02:15:38.683Z,101591.13
2023-05-05T02:20:41.983Z,101592.69
2023-05-05T02:25:49.401Z,101606.38
2023-05-05T02:31:00.876Z,101600.69
2023-05-05T02:36:22.154Z,101611.94
2023-05-05T02:41:35.121Z,101596.63
2023-05-05T02:46:43.715Z,101597.25
2023-05-05T02:51:46.529Z,101584.78
2023-05-05T02:57:01.346Z,101589.97
2023-05-05T03:02:22.838Z,101599.78
2023-05-05T03:07:31.132Z,101585.03
2023-05-05T03:12:49.870Z,101596.75
2023-05-05T03:17:59.900Z,101596.41
2023-05-05T03:23:03.872Z,101603.13
2023-05-05T03:28:08.107Z,101607.50
2023-05-05T03:33:12.260Z,101611.00
2023-05-05T03:38:17.008Z,101601.34
2023-05-05T03:43:21.015Z,101602.06
2023-05-05T03:48:24.352Z,101595.56
2023-05-05T03:53:28.088Z,101589.03
2023-05-05T03:58:31.298Z,101589.88
2023-05-05T04:03:34.382Z,101626.91
2023-05-05T04:08:37.651Z,101626.38
2023-05-05T04:13:41.641Z,101621.41
2023-05-05T04:18:44.758Z,101626.91
2023-05-05T04:23:47.984Z,101623.00
2023-05-05T04:28:50.716Z,101629.41
2023-05-05T04:33:55.401Z,101624.84
2023-05-05T04:38:58.159Z,101624.75
2023-05-05T04:44:01.184Z,101608.53
2023-05-05T04:49:05.346Z,101612.69
2023-05-05T04:54:09.547Z,101614.94
2023-05-05T04:59:12.401Z,101617.28
2023-05-05T05:04:18.849Z,101616.13
2023-05-05T05:09:21.714Z,101615.00
2023-05-05T05:14:24.620Z,101625.16
2023-05-05T05:19:27.458Z,101616.81
2023-05-05T05:24:30.419Z,101614.00
2023-05-05T05:29:33.264Z,101625.25
2023-05-05T05:34:36.868Z,101616.34
2023-05-05T05:39:43.510Z,101609.34
2023-05-05T05:44:47.986Z,101618.38
2023-05-05T05:49:51.859Z,101614.00
2023-05-05T05:54:56.586Z,101624.28
2023-05-05T06:00:01.942Z,101619.03
2023-05-05T06:05:14.304Z,101627.09
2023-05-05T06:10:26.460Z,101618.94
2023-05-05T06:15:34.146Z,101627.16
2023-05-05T06:20:38.971Z,101622.88
2023-05-05T06:25:42.122Z,101621.81
2023-05-05T06:30:44.719Z,101611.03
2023-05-05T06:35:48.040Z,101606.13
2023-05-05T06:40:51.009Z,101595.91
2023-05-05T06:45:54.115Z,101596.25
2023-05-05T06:50:57.209Z,101598.13
2023-05-05T06:55:59.946Z,101619.78
2023-05-05T07:01:02.691Z,101596.28
2023-05-05T07:06:05.477Z,101602.91
2023-05-05T07:11:08.254Z,101609.19
2023-05-05T07:16:11.143Z,101602.03
2023-05-05T07:21:13.921Z,101597.44
2023-05-05T07:26:16.829Z,101591.22
2023-05-05T07:31:22.631Z,101593.63
2023-05-05T07:36:25.631Z,101592.22
2023-05-05T07:41:28.355Z,101594.34
2023-05-05T07:46:31.122Z,101578.75
2023-05-05T07:51:34.631Z,101580.91
2023-05-05T07:56:37.929Z,101582.06
2023-05-05T08:01:40.808Z,101600.03
2023-05-05T08:06:43.666Z,101588.88
2023-05-05T08:11:46.468Z,101585.97
2023-05-05T08:16:49.340Z,101574.16
2023-05-05T08:21:54.026Z,101572.78
2023-05-05T08:26:57.160Z,101587.19
2023-05-05T08:32:00.529Z,101574.28
2023-05-05T08:37:03.432Z,101574.72
2023-05-05T08:42:06.583Z,101561.22
2023-05-05T08:47:11.400Z,101551.34
2023-05-05T08:52:24.529Z,101553.59
2023-05-05T08:57:56.760Z,101553.53
2023-05-05T09:03:00.439Z,101554.66
2023-05-05T09:08:08.458Z,101561.38
2023-05-05T09:13:11.357Z,101541.41
2023-05-05T09:18:14.751Z,101562.66
2023-05-05T09:23:21.243Z,101548.94
2023-05-05T09:28:24.654Z,101539.50
2023-05-05T09:33:31.933Z,101513.03
2023-05-05T09:38:35.811Z,101515.88
2023-05-05T09:43:55.500Z,101523.97
2023-05-05T09:49:12.626Z,101509.72
2023-05-05T09:54:29.399Z,101512.09
2023-05-05T09:59:32.501Z,101490.91
2023-05-05T10:04:36.380Z,101483.97
2023-05-05T10:09:38.944Z,101477.28
2023-05-05T10:14:42.178Z,101466.41
2023-05-05T10:19:46.060Z,101468.88
2023-05-05T10:25:02.848Z,101473.13
2023-05-05T10:30:08.218Z,101461.09
2023-05-05T10:35:16.351Z,101465.25
2023-05-05T10:40:22.722Z,101473.78
2023-05-05T10:45:25.734Z,101450.50
2023-05-05T10:50:42.047Z,101460.00
2023-05-05T10:56:02.997Z,101463.97
2023-05-05T11:01:09.457Z,101453.88
2023-05-05T11:06:13.819Z,101441.72
2023-05-05T11:11:16.590Z,101442.53
2023-05-05T11:16:47.633Z,101423.03
2023-05-05T11:22:09.089Z,101409.81
2023-05-05T11:27:11.887Z,101422.13
2023-05-05T11:32:16.179Z,101416.09
2023-05-05T11:37:24.602Z,101402.78
2023-05-05T11:42:30.571Z,101394.41
2023-05-05T11:47:35.287Z,101393.03
2023-05-05T11:52:38.560Z,101380.88
2023-05-05T11:57:41.610Z,101374.47
2023-05-05T12:02:59.942Z,101356.34
2023-05-05T12:08:03.159Z,101356.44
2023-05-05T12:13:19.083Z,101361.13
2023-05-05T12:18:30.716Z,101357.53
2023-05-05T12:23:42.698Z,101345.69
2023-05-05T12:28:58.419Z,101344.81
2023-05-05T12:34:14.802Z,101347.81
2023-05-05T12:39:26.241Z,101345.28
2023-05-05T12:44:42.171Z,101341.50
2023-05-05T12:49:55.157Z,101331.78
2023-05-05T12:55:05.526Z,101347.28
2023-05-05T13:00:18.577Z,101330.88
2023-05-05T13:05:39.243Z,101317.91
2023-05-05T13:11:00.933Z,101325.94
2023-05-05T13:16:10.621Z,101313.50
2023-05-05T13:21:17.156Z,101311.06
2023-05-05T13:26:20.809Z,101302.81
2023-05-05T13:31:24.820Z,101305.84
2023-05-05T13:36:27.633Z,101308.31
2023-05-05T13:41:30.599Z,101305.94
2023-05-05T13:46:33.985Z,101312.34
2023-05-05T13:52:05.917Z,101318.84
2023-05-05T13:57:26.812Z,101308.94
2023-05-05T14:02:29.605Z,101311.72
2023-05-05T14:07:33.130Z,101301.44
2023-05-05T14:12:49.162Z,101308.00
2023-05-05T14:17:55.247Z,101311.56
2023-05-05T14:23:01.494Z,101306.47
2023-05-05T14:28:09.793Z,101315.63
2023-05-05T14:33:19.275Z,101310.50
2023-05-05T14:38:23.592Z,101310.88
2023-05-05T14:48:49.857Z,101305.91
2023-05-05T14:53:56.495Z,101310.13
2023-05-05T14:59:00.191Z,101286.34
2023-05-05T15:04:03.237Z,101300.56
2023-05-05T15:09:07.110Z,101306.47
2023-05-05T15:14:10.272Z,101307.72
2023-05-05T15:19:12.978Z,101298.53
2023-05-05T15:24:16.255Z,101313.03
2023-05-05T15:29:18.977Z,101314.06
2023-05-05T15:34:22.897Z,101317.06
2023-05-05T15:39:25.813Z,101319.13
2023-05-05T15:44:30.652Z,101317.16
2023-05-05T15:49:38.912Z,101323.09
2023-05-05T15:54:42.153Z,101325.00
2023-05-05T15:59:45.125Z,101318.09
2023-05-05T16:04:50.871Z,101313.47
2023-05-05T16:09:55.339Z,101323.50
2023-05-05T16:14:59.094Z,101316.13
2023-05-05T16:20:01.999Z,101315.13
2023-05-05T16:25:06.761Z,101302.25
2023-05-05T16:30:14.038Z,101305.97
2023-05-05T16:35:18.770Z,101305.91
2023-05-05T16:40:22.815Z,101301.38
2023-05-05T16:45:26.652Z,101300.63
2023-05-05T16:50:29.671Z,101299.72
2023-05-05T16:55:34.897Z,101298.25
2023-05-05T17:00:38.026Z,101292.72
2023-05-05T17:05:41.516Z,101284.47
2023-05-05T17:10:45.872Z,101287.06
2023-05-05T17:15:50.413Z,101282.03
2023-05-05T17:20:54.021Z,101274.13
2023-05-05T17:25:59.096Z,101278.00
2023-05-05T17:31:04.639Z,101277.88
2023-05-05T17:36:10.619Z,101279.56
2023-05-05T17:41:14.554Z,101275.16
2023-05-05T17:46:17.649Z,101283.09
2023-05-05T17:51:20.678Z,101278.94
2023-05-05T17:56:23.735Z,101276.22
2023-05-05T18:01:28.156Z,101271.25
2023-05-05T18:06:31.126Z,101276.69
2023-05-05T18:11:35.513Z,101274.44
2023-05-05T18:16:38.517Z,101272.16
2023-05-05T18:21:43.183Z,101267.19
2023-05-05T18:26:50.780Z,101258.16
2023-05-05T18:31:55.037Z,101260.44
2023-05-05T18:36:57.969Z,101251.00
2023-05-05T18:42:00.879Z,101250.63
2023-05-05T18:47:03.863Z,101242.91
2023-05-05T18:52:06.856Z,101242.44
2023-05-05T18:57:09.494Z,101244.41
2023-05-05T19:02:12.216Z,101240.84
2023-05-05T19:07:24.099Z,101234.28
2023-05-05T19:12:30.908Z,101226.47
2023-05-05T19:17:33.707Z,101215.88
2023-05-05T19:22:37.006Z,101214.88
2023-05-05T19:27:39.886Z,101219.69
2023-05-05T19:32:42.644Z,101213.47
2023-05-05T19:37:46.216Z,101201.88
2023-05-05T19:42:49.251Z,101200.72
2023-05-05T19:47:52.845Z,101192.63
2023-05-05T19:52:55.896Z,101191.56
2023-05-05T19:57:58.657Z,101186.03
2023-05-05T20:03:02.377Z,101189.00
2023-05-05T20:08:06.008Z,101187.81
2023-05-05T20:13:08.971Z,101185.78
2023-05-05T20:18:11.771Z,101181.00
2023-05-05T20:23:14.607Z,101186.03
2023-05-05T20:28:17.486Z,101182.31
2023-05-05T20:33:20.313Z,101183.38
2023-05-05T20:38:23.232Z,101173.59
2023-05-05T20:43:26.093Z,101180.66
2023-05-05T20:48:30.075Z,101169.47
2023-05-05T20:53:33.397Z,101163.63
2023-05-05T20:58:36.644Z,101172.38
2023-05-05T21:03:39.538Z,101170.91
2023-05-05T21:08:42.297Z,101163.63
2023-05-05T21:13:44.963Z,101158.81
2023-05-05T21:18:47.714Z,101161.34
2023-05-05T21:23:50.388Z,101159.84
2023-05-05T21:28:53.372Z,101154.47
2023-05-05T21:33:56.233Z,101146.13
2023-05-05T21:39:00.359Z,101152.19
2023-05-05T21:44:03.351Z,101147.81
2023-05-05T21:49:16.979Z,101151.53
2023-05-05T21:54:19.703Z,101138.88
2023-05-05T21:59:22.400Z,101139.28
2023-05-05T22:04:25.097Z,101135.31
2023-05-05T22:09:28.055Z,101125.53
2023-05-05T22:14:31.025Z,101121.97
2023-05-05T22:19:33.805Z,101123.63
2023-05-05T22:24:36.611Z,101129.00
2023-05-05T22:29:39.472Z,101124.63
2023-05-05T22:34:42.330Z,101128.56
2023-05-05T22:39:45.168Z,101128.19
2023-05-05T22:44:48.042Z,101117.84
2023-05-05T22:49:51.095Z,101116.81
2023-05-05T22:54:53.796Z,101118.00
2023-05-05T22:59:56.637Z,101123.63
2023-05-05T23:04:59.268Z,101118.84
2023-05-05T23:10:02.399Z,101120.28
2023-05-05T23:15:06.547Z,101105.31
2023-05-05T23:20:12.295Z,101112.75
2023-05-05T23:25:15.383Z,101111.44
2023-05-05T23:30:18.540Z,101112.66
2023-05-05T23:35:21.702Z,101114.97
2023-05-05T23:40:24.555Z,101103.34
2023-05-05T23:45:27.391Z,101112.75
2023-05-05T23:50:30.608Z,101122.50
2023-05-05T23:55:33.405Z,101118.50
